Arica, Arica Chacalluta International Airport (SCAR)

NameArica Chacalluta International Airport
CityArica
CountryChile
ICAOSCAR
IATAARI
Altitude51 m
CoordinatesGoogle Map
Live Air TrafficLiveATC.net
METARSCAR 200400Z 00000KT CAVOK 20/15 Q1016
2019-04-20 04:00:00 Wind: North (0°) 0 m/s - Visibility: > 10000 m - Weather: CAVOK - Temperature: 20 °C - Dew point: 15 °C - Humidity: 73.1% - Pressure: 1016 hPa

Sorry, no flights used the airport in this database.